Pagrindinis puslapis
METAR-TAF:

METAR-TAF

Oro uostai :

Ingolštatas, Vokietija

platuma: 48-43N, ilguma: 011-32E, Aukštis: 367 m

Dabartinis oras

Ataskaita buvo paskelbta 43 minutes, ne 23:20 UTC
Vėjas 3 kt iš Šiaurės
Temperatūra 8°C
Drėgmė 53%
Slėgis 1017 hPa
Matomumas: 9000 m

METAR: ETSI 282320Z AUTO 36003KT 9000 // ////// 08/M01 Q1017 ///

Laikas: 01:03 (00:03 UTC)


TAF: trūkstamas

Orai ataskaitas ir orų prognozės (METAR, TAF).

turimą stotys yra geltonos ir raudonos taškus žemėlapyje.

Perkelti pele per norėdami pamatyti stoties vardą.

Tada spustelėkite, norėdami matyti oro stebėjimo ir prognozės.

Norėdami pakeisti žemėlapį: spustelėkite ant žalios mygtukų su juodo kryžiaus žemyn,; žalią mygtuką su brūkšneliu, jei norite nutolinti; arba žalių rodyklių gretimoms žemėlapius.


METAR-TAF: